createdAt,value
2022-11-18T16:56:32.784Z,1.24
2022-11-18T16:59:00.826Z,1.18
2022-11-18T17:01:29.542Z,1.02
2022-11-18T17:03:57.375Z,1.23
2022-11-18T17:06:24.671Z,1.42
2022-11-18T17:08:51.887Z,1.12
2022-11-18T17:11:19.114Z,1.10
2022-11-18T17:13:48.785Z,1.20
2022-11-18T17:16:18.452Z,0.99
2022-11-18T17:18:45.640Z,1.10
2022-11-18T17:21:13.777Z,1.46
2022-11-18T17:23:41.337Z,1.86
2022-11-18T17:26:08.519Z,1.88
2022-11-18T17:28:36.355Z,1.93
2022-11-18T17:31:06.711Z,1.86
2022-11-18T17:33:34.110Z,1.71
2022-11-18T17:36:01.570Z,1.87
2022-11-18T17:38:28.828Z,2.22
2022-11-18T17:40:56.060Z,3.60
2022-11-18T17:43:23.311Z,2.43
2022-11-18T17:45:51.218Z,1.87
2022-11-18T17:48:22.000Z,1.94
2022-11-18T17:50:49.789Z,2.19
2022-11-18T17:56:46.683Z,1.75
2022-11-18T17:59:14.041Z,1.70
2022-11-18T18:01:41.454Z,1.57
2022-11-18T18:04:10.152Z,1.74
2022-11-18T18:06:37.399Z,1.81
2022-11-18T18:09:04.599Z,2.10
2022-11-18T18:11:31.814Z,1.94
2022-11-18T18:13:59.002Z,1.70
2022-11-18T18:16:26.352Z,2.01
2022-11-18T18:18:53.531Z,1.93
2022-11-18T18:21:22.611Z,1.77
2022-11-18T18:23:52.850Z,1.78
2022-11-18T18:26:20.062Z,1.73
2022-11-18T18:28:47.631Z,1.84
2022-11-18T18:31:15.831Z,2.61
2022-11-18T18:33:43.035Z,2.36
2022-11-18T18:36:11.892Z,2.03
2022-11-18T18:38:40.493Z,1.90
2022-11-18T18:41:08.268Z,2.07
2022-11-18T18:43:35.468Z,3.06
2022-11-18T18:46:02.792Z,3.16
2022-11-18T18:48:29.868Z,2.78
2022-11-18T18:51:03.648Z,3.48
2022-11-18T18:53:31.028Z,5.37
2022-11-18T18:55:59.585Z,7.14
2022-11-18T18:58:26.932Z,9.00
2022-11-18T19:00:58.083Z,10.12
2022-11-18T19:03:28.248Z,8.11
2022-11-18T19:06:27.339Z,7.44
2022-11-18T19:08:42.534Z,6.16
2022-11-18T19:11:11.168Z,6.80
2022-11-18T19:13:38.309Z,9.16
2022-11-18T19:16:06.049Z,8.65
2022-11-18T19:18:34.953Z,8.08
2022-11-18T19:21:02.134Z,8.10
2022-11-18T19:23:29.448Z,6.33
2022-11-18T19:25:59.817Z,6.27
2022-11-18T19:28:28.428Z,6.91
2022-11-18T19:30:55.531Z,7.00
2022-11-18T19:33:22.691Z,7.38
2022-11-18T19:35:49.769Z,7.26
2022-11-18T19:38:16.909Z,6.74
2022-11-18T19:40:44.029Z,6.88
2022-11-18T19:43:11.191Z,7.11
2022-11-18T19:45:44.650Z,6.38
2022-11-18T19:48:15.051Z,6.03
2022-11-18T19:50:42.249Z,5.67
2022-11-18T19:53:09.448Z,4.99
2022-11-18T19:55:36.571Z,4.66
2022-11-18T19:58:03.671Z,4.55
2022-11-18T20:00:30.838Z,4.48
2022-11-18T20:03:02.432Z,6.21
2022-11-18T20:05:29.570Z,7.12
2022-11-18T20:07:56.729Z,7.11
2022-11-18T20:10:23.787Z,8.18
2022-11-18T20:12:51.008Z,10.06
2022-11-18T20:15:18.127Z,9.10
